createdAt,value
2024-02-10T00:04:36.299Z,54.70
2024-02-10T00:09:39.081Z,68.20
2024-02-10T00:14:42.968Z,65.60
2024-02-10T00:19:50.479Z,56.60
2024-02-10T00:24:53.195Z,45.50
2024-02-10T00:29:56.947Z,42.10
2024-02-10T00:34:59.089Z,37.50
2024-02-10T00:40:03.024Z,32.80
2024-02-10T00:45:08.969Z,38.60
2024-02-10T00:50:11.060Z,41.20
2024-02-10T00:55:13.080Z,48.30
2024-02-10T01:00:19.545Z,34.10
2024-02-10T01:05:22.767Z,40.40
2024-02-10T01:10:25.153Z,46.60
2024-02-10T01:15:31.830Z,61.40
2024-02-10T01:20:33.902Z,58.30
2024-02-10T01:25:35.793Z,50.10
2024-02-10T01:30:37.706Z,49.20
2024-02-10T01:35:39.811Z,46.20
2024-02-10T01:40:44.155Z,26.40
2024-02-10T01:45:47.100Z,22.70
2024-02-10T01:50:49.387Z,22.20
2024-02-10T01:55:52.541Z,20.40
2024-02-10T02:00:55.292Z,20.40
2024-02-10T02:05:57.928Z,23.30
2024-02-10T02:10:59.863Z,31.00
2024-02-10T02:16:02.679Z,22.70
2024-02-10T02:21:07.721Z,26.30
2024-02-10T02:26:09.611Z,25.00
2024-02-10T02:31:11.790Z,30.10
2024-02-10T02:36:14.799Z,24.70
2024-02-10T02:41:16.777Z,24.70
2024-02-10T02:46:19.857Z,30.00
2024-02-10T02:51:22.612Z,25.10
2024-02-10T02:56:27.124Z,25.50
2024-02-10T03:01:32.307Z,26.80
2024-02-10T03:06:34.722Z,22.40
2024-02-10T03:11:37.688Z,22.40
2024-02-10T03:16:41.005Z,18.50
2024-02-10T03:21:43.389Z,17.60
2024-02-10T03:26:45.363Z,20.10
2024-02-10T03:31:47.395Z,22.90
2024-02-10T03:36:52.515Z,19.60
2024-02-10T03:41:54.601Z,16.60
2024-02-10T03:46:58.323Z,16.90
2024-02-10T03:52:00.353Z,16.20
2024-02-10T03:57:02.393Z,18.00
2024-02-10T04:02:04.397Z,12.60
2024-02-10T04:07:06.340Z,17.10
2024-02-10T04:12:08.285Z,12.10
2024-02-10T04:17:10.307Z,14.30
2024-02-10T04:22:12.454Z,18.00
2024-02-10T04:27:21.334Z,19.10
2024-02-10T04:32:23.444Z,12.70
2024-02-10T04:37:25.605Z,13.60
2024-02-10T04:42:27.451Z,16.00
2024-02-10T04:47:29.612Z,23.20
2024-02-10T04:52:31.785Z,19.60
2024-02-10T04:57:33.956Z,17.70
2024-02-10T05:02:35.758Z,15.60
2024-02-10T05:07:43.421Z,17.70
2024-02-10T05:12:47.860Z,20.90
2024-02-10T05:17:52.043Z,27.20
2024-02-10T05:23:01.514Z,25.50
2024-02-10T05:28:04.188Z,22.90
2024-02-10T05:33:06.732Z,29.30
2024-02-10T05:38:09.059Z,26.80
2024-02-10T05:43:14.774Z,30.20
2024-02-10T05:48:17.889Z,73.30
2024-02-10T05:53:19.778Z,39.30
2024-02-10T05:58:24.593Z,42.20
2024-02-10T06:03:30.682Z,34.40
2024-02-10T06:08:33.060Z,32.50
2024-02-10T06:13:35.038Z,34.60
2024-02-10T06:18:38.116Z,25.40
2024-02-10T06:23:41.355Z,40.20
2024-02-10T06:28:43.460Z,51.80
2024-02-10T06:33:47.487Z,41.60
2024-02-10T06:43:51.347Z,30.40
2024-02-10T06:48:53.278Z,47.50
2024-02-10T06:54:00.003Z,28.70
2024-02-10T06:59:04.318Z,34.00
2024-02-10T07:04:06.818Z,29.20
2024-02-10T07:09:08.826Z,26.30
2024-02-10T07:14:11.810Z,28.90
2024-02-10T07:19:17.709Z,27.40
2024-02-10T07:24:19.693Z,32.70
2024-02-10T07:29:21.599Z,68.50
2024-02-10T07:34:28.225Z,48.70
2024-02-10T07:39:30.517Z,40.40
2024-02-10T07:44:32.507Z,44.90
2024-02-10T07:49:35.241Z,23.40
2024-02-10T07:54:37.486Z,23.40
2024-02-10T07:59:40.324Z,19.50
2024-02-10T08:04:42.223Z,46.50
2024-02-10T08:09:44.251Z,19.90
2024-02-10T08:14:48.842Z,17.50
2024-02-10T08:19:58.572Z,18.60
2024-02-10T08:25:01.421Z,16.70
2024-02-10T08:30:08.357Z,18.10
2024-02-10T08:35:10.701Z,17.50
2024-02-10T08:40:14.370Z,16.10
2024-02-10T08:45:17.315Z,16.30
2024-02-10T08:50:19.939Z,18.40
2024-02-10T08:55:27.436Z,14.40
2024-02-10T09:00:29.335Z,16.50
2024-02-10T09:05:31.762Z,18.60
2024-02-10T09:10:34.217Z,20.80
2024-02-10T09:15:36.237Z,18.90
2024-02-10T09:20:38.215Z,15.60
2024-02-10T09:25:40.549Z,18.90
2024-02-10T09:30:43.001Z,18.70
2024-02-10T09:35:45.090Z,16.20
2024-02-10T09:40:47.176Z,15.60
2024-02-10T09:45:49.356Z,13.60
2024-02-10T09:50:51.276Z,18.50
2024-02-10T09:55:56.386Z,16.90
2024-02-10T10:01:02.682Z,13.80
2024-02-10T10:06:11.322Z,15.90
2024-02-10T10:11:13.545Z,17.50
2024-02-10T10:16:15.616Z,10.80
2024-02-10T10:21:18.004Z,10.30
2024-02-10T10:26:22.240Z,10.80
2024-02-10T10:31:27.581Z,8.00
2024-02-10T10:36:30.279Z,10.70
2024-02-10T10:41:34.413Z,11.10
2024-02-10T10:46:36.598Z,13.00
2024-02-10T10:51:51.677Z,10.40
2024-02-10T10:56:53.922Z,15.30
2024-02-10T11:01:56.222Z,13.10
2024-02-10T11:06:58.547Z,19.80
2024-02-10T11:12:04.525Z,14.10
2024-02-10T11:17:13.676Z,9.80
2024-02-10T11:22:24.173Z,12.60
2024-02-10T11:27:26.145Z,10.80
2024-02-10T11:32:33.288Z,9.80
2024-02-10T11:37:36.327Z,10.50
2024-02-10T11:42:38.431Z,11.60
2024-02-10T11:47:40.584Z,12.40
2024-02-10T11:52:43.904Z,12.90
2024-02-10T11:57:46.021Z,12.90
2024-02-10T12:02:49.119Z,15.80
2024-02-10T12:07:51.436Z,12.80
2024-02-10T12:12:56.913Z,11.80
2024-02-10T12:18:03.174Z,12.90
2024-02-10T12:23:05.829Z,10.10
2024-02-10T12:28:07.786Z,9.00
2024-02-10T12:33:11.262Z,9.70
2024-02-10T12:43:15.993Z,22.50
2024-02-10T12:48:19.033Z,8.10
2024-02-10T12:53:21.336Z,13.00
2024-02-10T12:58:23.850Z,12.70
2024-02-10T13:03:27.166Z,8.40
2024-02-10T13:08:29.225Z,12.30
2024-02-10T13:13:31.124Z,11.90
2024-02-10T13:18:38.642Z,10.40
2024-02-10T13:23:44.667Z,8.80
2024-02-10T13:28:47.201Z,9.40
2024-02-10T13:33:49.546Z,10.00
2024-02-10T13:39:10.201Z,6.10
2024-02-10T13:49:53.107Z,7.30
2024-02-10T13:55:13.905Z,10.80
2024-02-10T14:00:30.854Z,4.90
2024-02-10T14:05:59.845Z,8.00
2024-02-10T14:11:02.950Z,4.90
2024-02-10T14:16:08.027Z,5.30
2024-02-10T14:21:18.749Z,7.20
2024-02-10T14:26:39.262Z,15.80
2024-02-10T14:31:54.098Z,20.30
2024-02-10T14:37:08.584Z,9.30
2024-02-10T14:42:10.768Z,10.30
2024-02-10T14:47:13.303Z,11.00
2024-02-10T14:52:16.510Z,13.50
2024-02-10T14:57:18.387Z,9.10
2024-02-10T15:02:24.250Z,9.90
2024-02-10T15:07:26.711Z,9.70
2024-02-10T15:12:31.161Z,9.60
2024-02-10T15:17:33.151Z,7.70
2024-02-10T15:22:39.908Z,7.80
2024-02-10T15:27:41.854Z,6.40
2024-02-10T15:32:45.902Z,8.40
2024-02-10T15:37:47.970Z,13.10
2024-02-10T15:42:53.813Z,13.60
2024-02-10T15:47:56.518Z,15.60
2024-02-10T15:52:58.766Z,15.50
2024-02-10T15:58:01.094Z,25.80
2024-02-10T16:03:03.302Z,19.30
2024-02-10T16:08:05.529Z,17.10
2024-02-10T16:13:07.745Z,71.80
2024-02-10T16:18:16.685Z,36.10
2024-02-10T16:23:18.917Z,80.20
2024-02-10T16:28:20.954Z,159.40
2024-02-10T16:33:23.999Z,100.20
2024-02-10T16:38:26.146Z,93.20
2024-02-10T16:43:28.211Z,96.40
2024-02-10T16:48:33.010Z,65.90
2024-02-10T16:53:35.274Z,51.80
2024-02-10T16:58:37.580Z,39.10
2024-02-10T17:03:40.026Z,38.30
2024-02-10T17:08:46.595Z,50.90
2024-02-10T17:13:50.165Z,53.10
2024-02-10T17:18:53.692Z,70.90
2024-02-10T17:23:55.768Z,63.80
2024-02-10T17:29:02.994Z,71.10
2024-02-10T17:34:05.486Z,69.50
2024-02-10T17:39:08.006Z,74.60
2024-02-10T17:44:12.052Z,77.20
2024-02-10T17:49:26.452Z,111.80
2024-02-10T17:54:30.723Z,122.20
2024-02-10T17:59:33.048Z,182.00
2024-02-10T18:04:36.353Z,173.80
2024-02-10T18:09:39.619Z,162.70
2024-02-10T18:14:42.112Z,113.20
2024-02-10T18:19:44.958Z,91.00
2024-02-10T18:24:48.536Z,83.00
2024-02-10T18:29:52.459Z,104.50
2024-02-10T18:34:55.617Z,110.70
2024-02-10T18:39:57.854Z,138.90
2024-02-10T18:45:01.788Z,137.80
2024-02-10T18:50:04.410Z,104.70
2024-02-10T18:55:10.947Z,97.30
2024-02-10T19:00:15.370Z,85.10
2024-02-10T19:05:19.056Z,74.50
2024-02-10T19:15:26.177Z,70.00
2024-02-10T19:20:29.952Z,77.50
2024-02-10T19:25:34.654Z,76.10
2024-02-10T19:30:39.340Z,73.50
2024-02-10T19:35:42.911Z,80.00
2024-02-10T19:40:45.509Z,68.80
2024-02-10T19:45:48.093Z,64.60
2024-02-10T19:50:51.961Z,64.80
2024-02-10T19:55:56.293Z,61.20
2024-02-10T20:01:03.219Z,44.60
2024-02-10T20:06:08.702Z,32.60
2024-02-10T20:11:10.996Z,41.80
2024-02-10T20:16:14.324Z,45.20
2024-02-10T20:21:17.855Z,50.80
2024-02-10T20:26:21.068Z,50.60
2024-02-10T20:31:24.378Z,50.60
2024-02-10T20:36:28.351Z,51.70
2024-02-10T20:41:31.322Z,50.10
2024-02-10T20:46:33.254Z,57.60
2024-02-10T20:52:53.341Z,72.20
2024-02-10T20:57:56.301Z,62.90
2024-02-10T21:03:04.450Z,62.30
2024-02-10T21:08:06.904Z,62.60
2024-02-10T21:13:11.189Z,60.90
2024-02-10T21:23:17.706Z,67.70
2024-02-10T21:28:19.649Z,64.80
2024-02-10T21:33:22.031Z,64.40
2024-02-10T21:38:24.131Z,52.10
2024-02-10T21:43:26.832Z,50.80
2024-02-10T21:48:30.109Z,46.00
2024-02-10T21:53:32.227Z,40.80
2024-02-10T21:58:36.201Z,41.50
2024-02-10T22:03:38.533Z,52.50
2024-02-10T22:08:42.275Z,51.80
2024-02-10T22:13:44.385Z,41.40
2024-02-10T22:18:46.887Z,39.20
2024-02-10T22:23:49.064Z,34.10
2024-02-10T22:28:51.262Z,49.40
2024-02-10T22:33:55.076Z,50.00
2024-02-10T22:38:57.270Z,54.50
2024-02-10T22:44:01.008Z,59.60
2024-02-10T22:49:04.370Z,50.90
2024-02-10T22:54:07.302Z,61.50
2024-02-10T22:59:13.168Z,46.40
2024-02-10T23:04:15.239Z,41.70
2024-02-10T23:09:17.332Z,52.60
2024-02-10T23:14:21.555Z,52.20
2024-02-10T23:19:29.251Z,41.20
2024-02-10T23:24:31.485Z,35.40
2024-02-10T23:29:33.331Z,33.70
2024-02-10T23:34:35.352Z,27.00
2024-02-10T23:39:37.614Z,47.10
2024-02-10T23:44:39.459Z,36.40
2024-02-10T23:49:45.807Z,25.10
2024-02-10T23:54:49.227Z,42.40
2024-02-10T23:59:51.271Z,37.00
